Terminal Aerodrome Forecast
Issued by NWS

Home | Current Version | Previous Version | Text Only | Print | Product List | Glossary Off
Versions: 1 2 3 4 5 6 7 8 9 10 11 12 13 14 15 16 17 18 19 20 21 22 23 24 25 26 27 28 29

000
FTUS43 KGRB 180328 AAB
TAFATW
TAF AMD
KATW 180328Z 1803/1824 VRB03KT 1/2SM FG OVC003
     FM180500 27004KT 5SM BR SCT007 BKN012
     FM180700 26005KT 3SM BR SCT015 OVC025
     FM181100 23008KT 2SM BR OVC003
     FM181800 22010KT P6SM SCT010=

USA.gov is the U.S. government's official web portal to all federal, state and local government web resources and services.